sensor_id;sensor_type;location;lat;lon;timestamp;P1;durP1;ratioP1;P2;durP2;ratioP2
16665;SDS011;8446;50.998;6.250;2022-08-01T00:01:11;4.63;;;3.13;;
16665;SDS011;8446;50.998;6.250;2022-08-01T00:03:38;5.20;;;2.80;;
16665;SDS011;8446;50.998;6.250;2022-08-01T00:06:05;3.63;;;2.57;;
16665;SDS011;8446;50.998;6.250;2022-08-01T00:08:31;4.10;;;2.73;;
16665;SDS011;8446;50.998;6.250;2022-08-01T00:10:58;3.63;;;2.50;;
16665;SDS011;8446;50.998;6.250;2022-08-01T00:13:26;4.17;;;3.17;;
16665;SDS011;8446;50.998;6.250;2022-08-01T00:15:53;9.23;;;3.27;;
16665;SDS011;8446;50.998;6.250;2022-08-01T00:18:20;4.43;;;2.67;;
16665;SDS011;8446;50.998;6.250;2022-08-01T00:20:47;3.63;;;3.33;;
16665;SDS011;8446;50.998;6.250;2022-08-01T00:23:14;5.73;;;2.67;;
16665;SDS011;8446;50.998;6.250;2022-08-01T00:25:41;5.27;;;2.83;;
16665;SDS011;8446;50.998;6.250;2022-08-01T00:28:07;7.90;;;3.63;;
16665;SDS011;8446;50.998;6.250;2022-08-01T00:30:36;7.63;;;3.13;;
16665;SDS011;8446;50.998;6.250;2022-08-01T00:33:03;3.43;;;2.83;;
16665;SDS011;8446;50.998;6.250;2022-08-01T00:35:29;4.43;;;2.83;;
16665;SDS011;8446;50.998;6.250;2022-08-01T00:37:56;4.93;;;3.03;;
16665;SDS011;8446;50.998;6.250;2022-08-01T00:40:23;3.47;;;2.90;;
16665;SDS011;8446;50.998;6.250;2022-08-01T00:42:50;9.80;;;3.57;;
16665;SDS011;8446;50.998;6.250;2022-08-01T00:45:16;5.27;;;3.40;;
16665;SDS011;8446;50.998;6.250;2022-08-01T00:47:45;4.70;;;3.20;;
16665;SDS011;8446;50.998;6.250;2022-08-01T00:50:12;3.90;;;2.90;;
16665;SDS011;8446;50.998;6.250;2022-08-01T00:52:39;8.57;;;2.80;;
16665;SDS011;8446;50.998;6.250;2022-08-01T00:55:06;3.43;;;3.07;;
16665;SDS011;8446;50.998;6.250;2022-08-01T00:57:35;3.50;;;3.10;;
16665;SDS011;8446;50.998;6.250;2022-08-01T01:00:02;5.17;;;3.17;;
16665;SDS011;8446;50.998;6.250;2022-08-01T01:02:31;4.37;;;3.47;;
16665;SDS011;8446;50.998;6.250;2022-08-01T01:04:59;3.23;;;2.70;;
16665;SDS011;8446;50.998;6.250;2022-08-01T01:07:28;2.57;;;2.30;;
16665;SDS011;8446;50.998;6.250;2022-08-01T01:10:00;4.03;;;2.90;;
16665;SDS011;8446;50.998;6.250;2022-08-01T01:12:30;2.70;;;2.40;;
16665;SDS011;8446;50.998;6.250;2022-08-01T01:15:02;3.93;;;3.30;;
16665;SDS011;8446;50.998;6.250;2022-08-01T01:17:35;2.93;;;2.50;;
16665;SDS011;8446;50.998;6.250;2022-08-01T01:20:07;3.20;;;2.57;;
16665;SDS011;8446;50.998;6.250;2022-08-01T01:22:44;2.80;;;2.57;;
16665;SDS011;8446;50.998;6.250;2022-08-01T01:25:19;3.00;;;2.53;;
16665;SDS011;8446;50.998;6.250;2022-08-01T01:27:57;9.83;;;2.77;;
16665;SDS011;8446;50.998;6.250;2022-08-01T01:30:34;2.60;;;2.40;;
16665;SDS011;8446;50.998;6.250;2022-08-01T01:33:03;3.60;;;2.87;;
16665;SDS011;8446;50.998;6.250;2022-08-01T01:35:34;4.60;;;3.23;;
16665;SDS011;8446;50.998;6.250;2022-08-01T01:38:05;2.70;;;2.50;;
16665;SDS011;8446;50.998;6.250;2022-08-01T01:40:36;3.73;;;2.57;;
16665;SDS011;8446;50.998;6.250;2022-08-01T01:43:04;2.77;;;2.57;;
16665;SDS011;8446;50.998;6.250;2022-08-01T01:45:34;6.10;;;2.90;;
16665;SDS011;8446;50.998;6.250;2022-08-01T01:48:01;3.17;;;2.50;;
16665;SDS011;8446;50.998;6.250;2022-08-01T01:50:29;3.03;;;2.77;;
16665;SDS011;8446;50.998;6.250;2022-08-01T01:52:58;3.53;;;2.87;;
16665;SDS011;8446;50.998;6.250;2022-08-01T01:55:27;2.83;;;2.50;;
16665;SDS011;8446;50.998;6.250;2022-08-01T01:57:55;4.27;;;2.60;;
16665;SDS011;8446;50.998;6.250;2022-08-01T02:00:23;5.87;;;2.30;;
16665;SDS011;8446;50.998;6.250;2022-08-01T02:02:53;2.73;;;2.50;;
16665;SDS011;8446;50.998;6.250;2022-08-01T02:05:21;3.40;;;2.40;;
16665;SDS011;8446;50.998;6.250;2022-08-01T02:07:50;4.37;;;3.07;;
16665;SDS011;8446;50.998;6.250;2022-08-01T02:10:18;2.77;;;2.47;;
16665;SDS011;8446;50.998;6.250;2022-08-01T02:12:45;3.50;;;2.30;;
16665;SDS011;8446;50.998;6.250;2022-08-01T02:15:15;5.50;;;2.17;;
16665;SDS011;8446;50.998;6.250;2022-08-01T02:17:44;5.23;;;2.27;;
16665;SDS011;8446;50.998;6.250;2022-08-01T02:20:15;3.80;;;2.83;;
16665;SDS011;8446;50.998;6.250;2022-08-01T02:22:44;5.63;;;3.23;;
16665;SDS011;8446;50.998;6.250;2022-08-01T02:25:15;2.63;;;2.43;;
16665;SDS011;8446;50.998;6.250;2022-08-01T02:27:47;10.23;;;2.40;;
16665;SDS011;8446;50.998;6.250;2022-08-01T02:30:19;3.00;;;2.50;;
16665;SDS011;8446;50.998;6.250;2022-08-01T02:32:51;3.70;;;2.50;;
16665;SDS011;8446;50.998;6.250;2022-08-01T02:35:27;8.73;;;2.60;;
16665;SDS011;8446;50.998;6.250;2022-08-01T02:37:55;2.50;;;2.30;;
16665;SDS011;8446;50.998;6.250;2022-08-01T02:40:25;2.90;;;2.60;;
16665;SDS011;8446;50.998;6.250;2022-08-01T02:42:54;3.33;;;2.40;;
16665;SDS011;8446;50.998;6.250;2022-08-01T02:45:24;5.10;;;2.60;;
16665;SDS011;8446;50.998;6.250;2022-08-01T02:47:51;3.90;;;2.53;;
16665;SDS011;8446;50.998;6.250;2022-08-01T02:50:23;3.37;;;2.87;;
16665;SDS011;8446;50.998;6.250;2022-08-01T02:52:53;2.87;;;2.60;;
16665;SDS011;8446;50.998;6.250;2022-08-01T02:55:21;6.07;;;2.63;;
16665;SDS011;8446;50.998;6.250;2022-08-01T02:57:48;4.20;;;2.80;;
16665;SDS011;8446;50.998;6.250;2022-08-01T03:00:17;4.30;;;2.90;;
16665;SDS011;8446;50.998;6.250;2022-08-01T03:02:45;4.50;;;2.77;;
16665;SDS011;8446;50.998;6.250;2022-08-01T03:05:15;3.70;;;2.83;;
16665;SDS011;8446;50.998;6.250;2022-08-01T03:07:45;7.30;;;2.90;;
16665;SDS011;8446;50.998;6.250;2022-08-01T03:10:12;5.40;;;3.47;;
16665;SDS011;8446;50.998;6.250;2022-08-01T03:12:41;8.50;;;3.77;;
16665;SDS011;8446;50.998;6.250;2022-08-01T03:15:10;5.43;;;3.33;;
16665;SDS011;8446;50.998;6.250;2022-08-01T03:17:39;4.17;;;3.13;;
16665;SDS011;8446;50.998;6.250;2022-08-01T03:20:09;10.40;;;3.57;;
16665;SDS011;8446;50.998;6.250;2022-08-01T03:22:38;8.40;;;3.80;;
16665;SDS011;8446;50.998;6.250;2022-08-01T03:25:08;7.57;;;3.50;;
16665;SDS011;8446;50.998;6.250;2022-08-01T03:27:37;5.73;;;3.47;;
16665;SDS011;8446;50.998;6.250;2022-08-01T03:30:06;6.50;;;3.80;;
16665;SDS011;8446;50.998;6.250;2022-08-01T03:32:34;8.10;;;3.60;;
16665;SDS011;8446;50.998;6.250;2022-08-01T03:35:00;6.93;;;4.10;;
16665;SDS011;8446;50.998;6.250;2022-08-01T03:37:28;5.20;;;3.87;;
16665;SDS011;8446;50.998;6.250;2022-08-01T03:40:04;3.80;;;3.40;;
16665;SDS011;8446;50.998;6.250;2022-08-01T03:42:35;4.37;;;3.67;;
16665;SDS011;8446;50.998;6.250;2022-08-01T03:45:07;3.90;;;3.27;;
16665;SDS011;8446;50.998;6.250;2022-08-01T03:47:36;3.60;;;3.30;;
16665;SDS011;8446;50.998;6.250;2022-08-01T03:50:04;6.57;;;4.20;;
16665;SDS011;8446;50.998;6.250;2022-08-01T03:52:33;7.43;;;3.33;;
16665;SDS011;8446;50.998;6.250;2022-08-01T03:55:03;7.63;;;4.10;;
16665;SDS011;8446;50.998;6.250;2022-08-01T03:57:34;4.67;;;3.30;;
16665;SDS011;8446;50.998;6.250;2022-08-01T04:00:02;6.40;;;3.77;;
16665;SDS011;8446;50.998;6.250;2022-08-01T04:02:32;7.67;;;4.60;;
16665;SDS011;8446;50.998;6.250;2022-08-01T04:04:59;6.43;;;3.73;;
16665;SDS011;8446;50.998;6.250;2022-08-01T04:07:26;8.87;;;3.93;;
16665;SDS011;8446;50.998;6.250;2022-08-01T04:09:55;7.63;;;4.47;;
16665;SDS011;8446;50.998;6.250;2022-08-01T04:12:22;6.83;;;4.20;;
16665;SDS011;8446;50.998;6.250;2022-08-01T04:14:51;10.00;;;3.67;;
16665;SDS011;8446;50.998;6.250;2022-08-01T04:17:18;5.47;;;3.63;;
16665;SDS011;8446;50.998;6.250;2022-08-01T04:19:44;13.23;;;3.03;;
16665;SDS011;8446;50.998;6.250;2022-08-01T04:22:13;7.27;;;4.03;;
16665;SDS011;8446;50.998;6.250;2022-08-01T04:24:40;3.63;;;3.23;;
16665;SDS011;8446;50.998;6.250;2022-08-01T04:27:13;6.20;;;3.87;;
16665;SDS011;8446;50.998;6.250;2022-08-01T04:29:49;7.70;;;4.00;;
16665;SDS011;8446;50.998;6.250;2022-08-01T04:32:20;16.37;;;3.70;;
16665;SDS011;8446;50.998;6.250;2022-08-01T04:34:48;8.67;;;4.20;;
16665;SDS011;8446;50.998;6.250;2022-08-01T04:37:16;7.27;;;4.23;;
16665;SDS011;8446;50.998;6.250;2022-08-01T04:39:44;7.90;;;4.20;;
16665;SDS011;8446;50.998;6.250;2022-08-01T04:42:12;8.20;;;4.33;;
16665;SDS011;8446;50.998;6.250;2022-08-01T04:44:41;5.47;;;4.00;;
16665;SDS011;8446;50.998;6.250;2022-08-01T04:47:09;12.07;;;4.30;;
16665;SDS011;8446;50.998;6.250;2022-08-01T04:49:37;14.33;;;5.30;;
16665;SDS011;8446;50.998;6.250;2022-08-01T04:52:05;12.20;;;4.93;;
16665;SDS011;8446;50.998;6.250;2022-08-01T04:54:33;8.80;;;5.33;;
16665;SDS011;8446;50.998;6.250;2022-08-01T04:57:03;12.70;;;5.30;;
16665;SDS011;8446;50.998;6.250;2022-08-01T04:59:31;9.63;;;5.97;;
16665;SDS011;8446;50.998;6.250;2022-08-01T05:02:09;8.50;;;5.60;;
16665;SDS011;8446;50.998;6.250;2022-08-01T05:04:37;12.10;;;6.00;;
16665;SDS011;8446;50.998;6.250;2022-08-01T05:07:05;11.27;;;6.23;;
16665;SDS011;8446;50.998;6.250;2022-08-01T05:09:32;11.70;;;7.30;;
16665;SDS011;8446;50.998;6.250;2022-08-01T05:12:01;13.40;;;7.03;;
16665;SDS011;8446;50.998;6.250;2022-08-01T05:14:30;13.23;;;6.83;;
16665;SDS011;8446;50.998;6.250;2022-08-01T05:16:58;13.50;;;7.80;;
16665;SDS011;8446;50.998;6.250;2022-08-01T05:19:29;19.90;;;7.77;;
16665;SDS011;8446;50.998;6.250;2022-08-01T05:21:56;16.93;;;8.20;;
16665;SDS011;8446;50.998;6.250;2022-08-01T05:24:25;17.13;;;8.70;;
16665;SDS011;8446;50.998;6.250;2022-08-01T05:26:53;15.80;;;8.70;;
16665;SDS011;8446;50.998;6.250;2022-08-01T05:29:20;18.10;;;9.60;;
16665;SDS011;8446;50.998;6.250;2022-08-01T05:31:46;21.83;;;9.93;;
16665;SDS011;8446;50.998;6.250;2022-08-01T05:34:13;19.90;;;9.53;;
16665;SDS011;8446;50.998;6.250;2022-08-01T05:36:42;24.20;;;10.33;;
16665;SDS011;8446;50.998;6.250;2022-08-01T05:39:08;18.73;;;9.53;;
16665;SDS011;8446;50.998;6.250;2022-08-01T05:41:35;19.97;;;9.20;;
16665;SDS011;8446;50.998;6.250;2022-08-01T05:44:03;18.90;;;8.63;;
16665;SDS011;8446;50.998;6.250;2022-08-01T05:46:30;15.20;;;9.10;;
16665;SDS011;8446;50.998;6.250;2022-08-01T05:48:57;21.90;;;9.23;;
16665;SDS011;8446;50.998;6.250;2022-08-01T05:51:24;21.23;;;10.03;;
16665;SDS011;8446;50.998;6.250;2022-08-01T05:53:53;26.63;;;9.93;;
16665;SDS011;8446;50.998;6.250;2022-08-01T05:56:20;14.07;;;9.70;;
16665;SDS011;8446;50.998;6.250;2022-08-01T05:58:47;22.77;;;9.83;;
16665;SDS011;8446;50.998;6.250;2022-08-01T06:01:14;22.20;;;9.90;;
16665;SDS011;8446;50.998;6.250;2022-08-01T06:03:41;23.37;;;10.20;;
16665;SDS011;8446;50.998;6.250;2022-08-01T06:06:08;22.90;;;10.20;;
16665;SDS011;8446;50.998;6.250;2022-08-01T06:08:35;21.83;;;10.40;;
16665;SDS011;8446;50.998;6.250;2022-08-01T06:11:03;18.97;;;9.67;;
16665;SDS011;8446;50.998;6.250;2022-08-01T06:13:31;14.93;;;9.53;;
16665;SDS011;8446;50.998;6.250;2022-08-01T06:15:57;23.33;;;9.43;;
16665;SDS011;8446;50.998;6.250;2022-08-01T06:18:24;16.83;;;10.17;;
16665;SDS011;8446;50.998;6.250;2022-08-01T06:20:51;19.53;;;9.60;;
16665;SDS011;8446;50.998;6.250;2022-08-01T06:23:20;15.70;;;10.57;;
16665;SDS011;8446;50.998;6.250;2022-08-01T06:25:47;15.67;;;10.13;;
16665;SDS011;8446;50.998;6.250;2022-08-01T06:28:15;17.17;;;10.20;;
16665;SDS011;8446;50.998;6.250;2022-08-01T06:30:42;18.00;;;10.20;;
16665;SDS011;8446;50.998;6.250;2022-08-01T06:33:08;14.03;;;10.50;;
16665;SDS011;8446;50.998;6.250;2022-08-01T06:35:35;13.93;;;10.23;;
16665;SDS011;8446;50.998;6.250;2022-08-01T06:38:02;18.40;;;11.53;;
16665;SDS011;8446;50.998;6.250;2022-08-01T06:40:29;19.93;;;11.10;;
16665;SDS011;8446;50.998;6.250;2022-08-01T06:42:56;16.27;;;10.63;;
16665;SDS011;8446;50.998;6.250;2022-08-01T06:45:24;18.53;;;10.60;;
16665;SDS011;8446;50.998;6.250;2022-08-01T06:47:52;23.90;;;13.00;;
16665;SDS011;8446;50.998;6.250;2022-08-01T06:50:19;19.10;;;11.23;;
16665;SDS011;8446;50.998;6.250;2022-08-01T06:52:45;18.27;;;11.97;;
16665;SDS011;8446;50.998;6.250;2022-08-01T06:55:12;16.60;;;11.27;;
16665;SDS011;8446;50.998;6.250;2022-08-01T06:57:46;17.70;;;11.13;;
16665;SDS011;8446;50.998;6.250;2022-08-01T07:00:13;15.97;;;10.20;;
16665;SDS011;8446;50.998;6.250;2022-08-01T07:02:45;24.27;;;11.87;;
16665;SDS011;8446;50.998;6.250;2022-08-01T07:05:11;18.87;;;12.97;;
16665;SDS011;8446;50.998;6.250;2022-08-01T07:07:38;18.60;;;12.30;;
16665;SDS011;8446;50.998;6.250;2022-08-01T07:10:05;18.90;;;12.27;;
16665;SDS011;8446;50.998;6.250;2022-08-01T07:12:33;19.70;;;11.73;;
16665;SDS011;8446;50.998;6.250;2022-08-01T07:15:01;17.70;;;11.90;;
16665;SDS011;8446;50.998;6.250;2022-08-01T07:17:28;18.47;;;12.40;;
16665;SDS011;8446;50.998;6.250;2022-08-01T07:19:57;16.50;;;12.20;;
16665;SDS011;8446;50.998;6.250;2022-08-01T07:22:23;16.53;;;12.17;;
16665;SDS011;8446;50.998;6.250;2022-08-01T07:24:50;21.03;;;12.40;;
16665;SDS011;8446;50.998;6.250;2022-08-01T07:27:17;16.73;;;11.97;;
16665;SDS011;8446;50.998;6.250;2022-08-01T07:29:44;14.53;;;10.50;;
16665;SDS011;8446;50.998;6.250;2022-08-01T07:32:10;19.53;;;10.40;;
16665;SDS011;8446;50.998;6.250;2022-08-01T07:34:37;12.00;;;9.90;;
16665;SDS011;8446;50.998;6.250;2022-08-01T07:37:05;13.67;;;9.60;;
16665;SDS011;8446;50.998;6.250;2022-08-01T07:39:32;15.90;;;10.00;;
16665;SDS011;8446;50.998;6.250;2022-08-01T07:41:59;14.13;;;10.03;;
16665;SDS011;8446;50.998;6.250;2022-08-01T07:44:26;13.77;;;10.63;;
16665;SDS011;8446;50.998;6.250;2022-08-01T07:46:52;15.87;;;10.50;;
16665;SDS011;8446;50.998;6.250;2022-08-01T07:49:19;20.17;;;11.80;;
16665;SDS011;8446;50.998;6.250;2022-08-01T07:51:46;16.50;;;10.67;;
16665;SDS011;8446;50.998;6.250;2022-08-01T07:54:14;15.67;;;12.00;;
16665;SDS011;8446;50.998;6.250;2022-08-01T07:56:41;15.00;;;10.40;;
16665;SDS011;8446;50.998;6.250;2022-08-01T07:59:08;18.97;;;10.40;;
16665;SDS011;8446;50.998;6.250;2022-08-01T08:01:35;16.60;;;11.70;;
16665;SDS011;8446;50.998;6.250;2022-08-01T08:04:01;16.43;;;10.77;;
16665;SDS011;8446;50.998;6.250;2022-08-01T08:06:28;15.67;;;10.80;;
16665;SDS011;8446;50.998;6.250;2022-08-01T08:08:55;14.23;;;11.10;;
16665;SDS011;8446;50.998;6.250;2022-08-01T08:11:23;16.73;;;10.47;;
16665;SDS011;8446;50.998;6.250;2022-08-01T08:13:50;15.60;;;11.10;;
16665;SDS011;8446;50.998;6.250;2022-08-01T08:16:17;12.70;;;10.20;;
16665;SDS011;8446;50.998;6.250;2022-08-01T08:18:43;12.23;;;9.67;;
16665;SDS011;8446;50.998;6.250;2022-08-01T08:21:10;13.13;;;10.40;;
16665;SDS011;8446;50.998;6.250;2022-08-01T08:23:37;14.87;;;10.10;;
16665;SDS011;8446;50.998;6.250;2022-08-01T08:26:21;17.83;;;10.27;;
16665;SDS011;8446;50.998;6.250;2022-08-01T08:28:51;12.23;;;9.43;;
16665;SDS011;8446;50.998;6.250;2022-08-01T08:31:18;14.70;;;9.57;;
16665;SDS011;8446;50.998;6.250;2022-08-01T08:33:45;12.13;;;9.47;;
16665;SDS011;8446;50.998;6.250;2022-08-01T08:36:13;15.17;;;10.27;;
16665;SDS011;8446;50.998;6.250;2022-08-01T08:38:40;12.03;;;10.37;;
16665;SDS011;8446;50.998;6.250;2022-08-01T08:41:06;13.27;;;9.50;;
16665;SDS011;8446;50.998;6.250;2022-08-01T08:43:34;9.57;;;7.00;;
16665;SDS011;8446;50.998;6.250;2022-08-01T08:46:03;10.20;;;7.30;;
16665;SDS011;8446;50.998;6.250;2022-08-01T08:48:31;8.77;;;7.03;;
16665;SDS011;8446;50.998;6.250;2022-08-01T08:50:58;8.43;;;7.10;;
16665;SDS011;8446;50.998;6.250;2022-08-01T08:53:27;9.13;;;7.50;;
16665;SDS011;8446;50.998;6.250;2022-08-01T08:55:57;14.50;;;9.70;;
16665;SDS011;8446;50.998;6.250;2022-08-01T08:58:24;12.43;;;9.20;;
16665;SDS011;8446;50.998;6.250;2022-08-01T09:00:52;12.20;;;9.60;;
16665;SDS011;8446;50.998;6.250;2022-08-01T09:03:21;10.87;;;8.70;;
16665;SDS011;8446;50.998;6.250;2022-08-01T09:05:48;11.27;;;8.20;;
16665;SDS011;8446;50.998;6.250;2022-08-01T09:08:14;17.83;;;9.37;;
16665;SDS011;8446;50.998;6.250;2022-08-01T09:10:41;16.60;;;9.90;;
16665;SDS011;8446;50.998;6.250;2022-08-01T09:13:09;14.50;;;9.33;;
16665;SDS011;8446;50.998;6.250;2022-08-01T09:15:37;12.80;;;8.27;;
16665;SDS011;8446;50.998;6.250;2022-08-01T09:18:05;11.87;;;8.93;;
16665;SDS011;8446;50.998;6.250;2022-08-01T09:20:34;13.00;;;9.50;;
16665;SDS011;8446;50.998;6.250;2022-08-01T09:23:01;11.27;;;8.40;;
16665;SDS011;8446;50.998;6.250;2022-08-01T09:25:28;13.07;;;8.50;;
16665;SDS011;8446;50.998;6.250;2022-08-01T09:28:01;10.07;;;7.77;;
16665;SDS011;8446;50.998;6.250;2022-08-01T09:30:30;13.40;;;6.83;;
16665;SDS011;8446;50.998;6.250;2022-08-01T09:33:04;9.53;;;7.73;;
16665;SDS011;8446;50.998;6.250;2022-08-01T09:35:32;8.40;;;6.60;;
16665;SDS011;8446;50.998;6.250;2022-08-01T09:38:11;8.50;;;6.60;;
16665;SDS011;8446;50.998;6.250;2022-08-01T09:40:45;7.20;;;5.37;;
16665;SDS011;8446;50.998;6.250;2022-08-01T09:43:13;10.63;;;7.30;;
16665;SDS011;8446;50.998;6.250;2022-08-01T09:45:40;9.00;;;6.13;;
16665;SDS011;8446;50.998;6.250;2022-08-01T09:48:07;7.13;;;5.90;;
16665;SDS011;8446;50.998;6.250;2022-08-01T09:50:42;9.40;;;5.73;;
16665;SDS011;8446;50.998;6.250;2022-08-01T09:53:11;8.37;;;5.80;;
16665;SDS011;8446;50.998;6.250;2022-08-01T09:55:39;6.30;;;5.20;;
16665;SDS011;8446;50.998;6.250;2022-08-01T09:58:07;7.57;;;5.97;;
16665;SDS011;8446;50.998;6.250;2022-08-01T10:00:36;7.57;;;5.60;;
16665;SDS011;8446;50.998;6.250;2022-08-01T10:03:18;6.23;;;5.13;;
16665;SDS011;8446;50.998;6.250;2022-08-01T10:05:47;7.43;;;4.70;;
16665;SDS011;8446;50.998;6.250;2022-08-01T10:08:15;8.10;;;5.80;;
16665;SDS011;8446;50.998;6.250;2022-08-01T10:10:42;6.90;;;5.37;;
16665;SDS011;8446;50.998;6.250;2022-08-01T10:13:30;6.70;;;5.67;;
16665;SDS011;8446;50.998;6.250;2022-08-01T10:15:57;9.17;;;6.43;;
16665;SDS011;8446;50.998;6.250;2022-08-01T10:18:25;7.77;;;5.70;;
16665;SDS011;8446;50.998;6.250;2022-08-01T10:20:55;7.80;;;5.10;;
16665;SDS011;8446;50.998;6.250;2022-08-01T10:23:23;6.53;;;4.70;;
16665;SDS011;8446;50.998;6.250;2022-08-01T10:25:50;6.67;;;5.40;;
16665;SDS011;8446;50.998;6.250;2022-08-01T10:28:20;7.00;;;5.90;;
16665;SDS011;8446;50.998;6.250;2022-08-01T10:30:48;8.00;;;5.43;;
16665;SDS011;8446;50.998;6.250;2022-08-01T10:33:16;5.37;;;4.60;;
16665;SDS011;8446;50.998;6.250;2022-08-01T10:35:45;5.13;;;4.57;;
16665;SDS011;8446;50.998;6.250;2022-08-01T10:38:13;4.93;;;4.00;;
16665;SDS011;8446;50.998;6.250;2022-08-01T10:40:42;5.50;;;4.70;;
16665;SDS011;8446;50.998;6.250;2022-08-01T10:43:09;9.80;;;4.80;;
16665;SDS011;8446;50.998;6.250;2022-08-01T10:45:36;5.07;;;4.57;;
16665;SDS011;8446;50.998;6.250;2022-08-01T10:48:04;7.77;;;4.20;;
16665;SDS011;8446;50.998;6.250;2022-08-01T10:50:41;4.30;;;3.80;;
16665;SDS011;8446;50.998;6.250;2022-08-01T10:53:11;7.77;;;4.83;;
16665;SDS011;8446;50.998;6.250;2022-08-01T10:55:47;6.50;;;3.77;;
16665;SDS011;8446;50.998;6.250;2022-08-01T10:58:22;5.93;;;4.60;;
16665;SDS011;8446;50.998;6.250;2022-08-01T11:03:41;4.90;;;4.20;;
16665;SDS011;8446;50.998;6.250;2022-08-01T11:06:15;4.60;;;4.03;;
16665;SDS011;8446;50.998;6.250;2022-08-01T11:08:44;4.00;;;3.60;;
16665;SDS011;8446;50.998;6.250;2022-08-01T11:11:18;6.17;;;3.40;;
16665;SDS011;8446;50.998;6.250;2022-08-01T11:14:00;5.80;;;4.10;;
16665;SDS011;8446;50.998;6.250;2022-08-01T11:16:32;5.40;;;3.90;;
16665;SDS011;8446;50.998;6.250;2022-08-01T11:19:00;5.70;;;4.90;;
16665;SDS011;8446;50.998;6.250;2022-08-01T11:27:23;4.77;;;3.50;;
16665;SDS011;8446;50.998;6.250;2022-08-01T11:32:58;3.90;;;3.60;;
16665;SDS011;8446;50.998;6.250;2022-08-01T11:35:25;4.87;;;3.90;;
16665;SDS011;8446;50.998;6.250;2022-08-01T11:37:54;6.17;;;4.13;;
16665;SDS011;8446;50.998;6.250;2022-08-01T11:40:23;3.50;;;2.80;;
16665;SDS011;8446;50.998;6.250;2022-08-01T11:45:46;4.57;;;3.30;;
16665;SDS011;8446;50.998;6.250;2022-08-01T11:48:17;3.83;;;3.43;;
16665;SDS011;8446;50.998;6.250;2022-08-01T11:50:45;4.80;;;3.37;;
16665;SDS011;8446;50.998;6.250;2022-08-01T11:53:12;4.10;;;3.80;;
16665;SDS011;8446;50.998;6.250;2022-08-01T11:55:44;3.27;;;2.97;;
16665;SDS011;8446;50.998;6.250;2022-08-01T11:58:14;3.60;;;3.30;;
16665;SDS011;8446;50.998;6.250;2022-08-01T12:00:49;3.10;;;2.90;;
16665;SDS011;8446;50.998;6.250;2022-08-01T12:03:22;2.83;;;2.63;;
16665;SDS011;8446;50.998;6.250;2022-08-01T12:05:50;7.50;;;3.53;;
16665;SDS011;8446;50.998;6.250;2022-08-01T12:08:23;2.97;;;2.67;;
16665;SDS011;8446;50.998;6.250;2022-08-01T12:10:52;3.37;;;2.67;;
16665;SDS011;8446;50.998;6.250;2022-08-01T12:13:20;3.20;;;2.90;;
16665;SDS011;8446;50.998;6.250;2022-08-01T12:15:47;2.07;;;1.87;;
16665;SDS011;8446;50.998;6.250;2022-08-01T12:18:15;2.73;;;2.50;;
16665;SDS011;8446;50.998;6.250;2022-08-01T12:20:43;2.60;;;2.20;;
16665;SDS011;8446;50.998;6.250;2022-08-01T12:23:12;3.63;;;2.77;;
16665;SDS011;8446;50.998;6.250;2022-08-01T12:25:41;2.43;;;2.23;;
16665;SDS011;8446;50.998;6.250;2022-08-01T12:28:11;3.90;;;3.00;;
16665;SDS011;8446;50.998;6.250;2022-08-01T12:30:39;2.10;;;2.00;;
16665;SDS011;8446;50.998;6.250;2022-08-01T12:33:06;3.20;;;2.17;;
16665;SDS011;8446;50.998;6.250;2022-08-01T12:35:34;5.60;;;2.43;;
16665;SDS011;8446;50.998;6.250;2022-08-01T12:38:03;2.63;;;1.87;;
16665;SDS011;8446;50.998;6.250;2022-08-01T12:40:32;2.03;;;1.93;;
16665;SDS011;8446;50.998;6.250;2022-08-01T12:43:01;2.40;;;2.17;;
16665;SDS011;8446;50.998;6.250;2022-08-01T12:45:38;2.90;;;1.73;;
16665;SDS011;8446;50.998;6.250;2022-08-01T12:48:08;9.90;;;2.30;;
16665;SDS011;8446;50.998;6.250;2022-08-01T12:50:37;2.50;;;2.30;;
16665;SDS011;8446;50.998;6.250;2022-08-01T12:53:05;2.20;;;2.00;;
16665;SDS011;8446;50.998;6.250;2022-08-01T12:55:34;2.20;;;2.10;;
16665;SDS011;8446;50.998;6.250;2022-08-01T12:58:11;2.10;;;2.00;;
16665;SDS011;8446;50.998;6.250;2022-08-01T13:00:41;1.53;;;1.43;;
16665;SDS011;8446;50.998;6.250;2022-08-01T13:03:10;1.70;;;1.60;;
16665;SDS011;8446;50.998;6.250;2022-08-01T13:05:42;3.87;;;2.50;;
16665;SDS011;8446;50.998;6.250;2022-08-01T13:08:10;4.03;;;2.00;;
16665;SDS011;8446;50.998;6.250;2022-08-01T13:10:38;1.80;;;1.70;;
16665;SDS011;8446;50.998;6.250;2022-08-01T13:13:05;1.80;;;1.70;;
16665;SDS011;8446;50.998;6.250;2022-08-01T13:15:34;2.20;;;2.10;;
16665;SDS011;8446;50.998;6.250;2022-08-01T13:21:06;1.77;;;1.40;;
16665;SDS011;8446;50.998;6.250;2022-08-01T13:23:34;1.43;;;1.33;;
16665;SDS011;8446;50.998;6.250;2022-08-01T13:26:01;2.77;;;1.53;;
16665;SDS011;8446;50.998;6.250;2022-08-01T13:28:28;1.53;;;1.43;;
16665;SDS011;8446;50.998;6.250;2022-08-01T13:30:57;1.50;;;1.23;;
16665;SDS011;8446;50.998;6.250;2022-08-01T13:33:27;1.60;;;1.50;;
16665;SDS011;8446;50.998;6.250;2022-08-01T13:36:05;1.50;;;1.40;;
16665;SDS011;8446;50.998;6.250;2022-08-01T13:38:32;1.70;;;1.30;;
16665;SDS011;8446;50.998;6.250;2022-08-01T13:41:16;1.53;;;1.43;;
16665;SDS011;8446;50.998;6.250;2022-08-01T13:43:43;1.53;;;1.43;;
16665;SDS011;8446;50.998;6.250;2022-08-01T13:46:10;1.57;;;1.47;;
16665;SDS011;8446;50.998;6.250;2022-08-01T13:48:38;1.53;;;1.43;;
16665;SDS011;8446;50.998;6.250;2022-08-01T13:51:05;1.40;;;1.30;;
16665;SDS011;8446;50.998;6.250;2022-08-01T13:53:32;1.30;;;1.20;;
16665;SDS011;8446;50.998;6.250;2022-08-01T13:55:59;2.37;;;1.33;;
16665;SDS011;8446;50.998;6.250;2022-08-01T13:58:26;1.40;;;1.30;;
16665;SDS011;8446;50.998;6.250;2022-08-01T14:00:53;2.23;;;1.50;;
16665;SDS011;8446;50.998;6.250;2022-08-01T14:03:20;5.33;;;1.90;;
16665;SDS011;8446;50.998;6.250;2022-08-01T14:05:48;1.83;;;1.43;;
16665;SDS011;8446;50.998;6.250;2022-08-01T14:08:15;1.63;;;1.30;;
16665;SDS011;8446;50.998;6.250;2022-08-01T14:10:43;2.80;;;1.40;;
16665;SDS011;8446;50.998;6.250;2022-08-01T14:13:10;1.60;;;1.50;;
16665;SDS011;8446;50.998;6.250;2022-08-01T14:15:36;3.07;;;1.60;;
16665;SDS011;8446;50.998;6.250;2022-08-01T14:18:03;1.70;;;1.30;;
16665;SDS011;8446;50.998;6.250;2022-08-01T14:20:31;2.73;;;1.90;;
16665;SDS011;8446;50.998;6.250;2022-08-01T14:22:59;5.27;;;1.77;;
16665;SDS011;8446;50.998;6.250;2022-08-01T14:25:26;2.33;;;1.77;;
16665;SDS011;8446;50.998;6.250;2022-08-01T14:27:53;1.53;;;1.43;;
16665;SDS011;8446;50.998;6.250;2022-08-01T14:30:20;2.83;;;1.40;;
16665;SDS011;8446;50.998;6.250;2022-08-01T14:32:46;1.70;;;1.57;;
16665;SDS011;8446;50.998;6.250;2022-08-01T14:35:13;1.60;;;1.50;;
16665;SDS011;8446;50.998;6.250;2022-08-01T14:37:40;1.40;;;1.30;;
16665;SDS011;8446;50.998;6.250;2022-08-01T14:40:09;1.40;;;1.30;;
16665;SDS011;8446;50.998;6.250;2022-08-01T14:42:36;3.10;;;1.57;;
16665;SDS011;8446;50.998;6.250;2022-08-01T14:45:05;1.53;;;1.43;;
16665;SDS011;8446;50.998;6.250;2022-08-01T14:47:34;2.50;;;1.47;;
16665;SDS011;8446;50.998;6.250;2022-08-01T14:50:02;1.53;;;1.37;;
16665;SDS011;8446;50.998;6.250;2022-08-01T14:52:30;1.93;;;1.43;;
16665;SDS011;8446;50.998;6.250;2022-08-01T14:54:56;1.50;;;1.40;;
16665;SDS011;8446;50.998;6.250;2022-08-01T14:57:25;3.20;;;1.80;;
16665;SDS011;8446;50.998;6.250;2022-08-01T14:59:52;2.10;;;1.33;;
16665;SDS011;8446;50.998;6.250;2022-08-01T15:02:19;1.50;;;1.40;;
16665;SDS011;8446;50.998;6.250;2022-08-01T15:04:46;1.90;;;1.60;;
16665;SDS011;8446;50.998;6.250;2022-08-01T15:07:14;2.80;;;1.50;;
16665;SDS011;8446;50.998;6.250;2022-08-01T15:09:42;1.40;;;1.30;;
16665;SDS011;8446;50.998;6.250;2022-08-01T15:12:10;4.13;;;1.60;;
16665;SDS011;8446;50.998;6.250;2022-08-01T15:14:39;4.10;;;1.60;;
16665;SDS011;8446;50.998;6.250;2022-08-01T15:17:15;4.23;;;1.63;;
16665;SDS011;8446;50.998;6.250;2022-08-01T15:19:43;3.07;;;1.60;;
16665;SDS011;8446;50.998;6.250;2022-08-01T15:22:11;1.40;;;1.30;;